sensor_id;sensor_type;location;lat;lon;timestamp;temperature;humidity
13231;DHT22;6681;53.254;10.398;2023-03-11T00:02:09;0.70;99.90
13231;DHT22;6681;53.254;10.398;2023-03-11T00:04:35;1.10;99.90
13231;DHT22;6681;53.254;10.398;2023-03-11T00:07:02;0.70;99.90
13231;DHT22;6681;53.254;10.398;2023-03-11T00:09:29;0.70;99.90
13231;DHT22;6681;53.254;10.398;2023-03-11T00:11:55;0.70;99.90
13231;DHT22;6681;53.254;10.398;2023-03-11T00:14:20;2.00;99.90
13231;DHT22;6681;53.254;10.398;2023-03-11T00:16:46;0.70;99.90
13231;DHT22;6681;53.254;10.398;2023-03-11T00:19:12;0.70;99.90
13231;DHT22;6681;53.254;10.398;2023-03-11T00:21:37;3.00;99.90
13231;DHT22;6681;53.254;10.398;2023-03-11T00:24:03;2.70;99.90
13231;DHT22;6681;53.254;10.398;2023-03-11T00:26:29;0.70;99.90
13231;DHT22;6681;53.254;10.398;2023-03-11T00:28:55;1.20;99.90
13231;DHT22;6681;53.254;10.398;2023-03-11T00:31:21;0.70;99.90
13231;DHT22;6681;53.254;10.398;2023-03-11T00:33:47;0.80;99.90
13231;DHT22;6681;53.254;10.398;2023-03-11T00:36:33;2.10;99.90
13231;DHT22;6681;53.254;10.398;2023-03-11T00:39:00;0.70;99.90
13231;DHT22;6681;53.254;10.398;2023-03-11T00:41:27;2.10;99.90
13231;DHT22;6681;53.254;10.398;2023-03-11T00:43:52;1.00;99.90
13231;DHT22;6681;53.254;10.398;2023-03-11T00:46:18;1.30;99.90
13231;DHT22;6681;53.254;10.398;2023-03-11T00:48:44;0.70;99.90
13231;DHT22;6681;53.254;10.398;2023-03-11T00:51:14;0.80;99.90
13231;DHT22;6681;53.254;10.398;2023-03-11T00:53:41;2.50;99.90
13231;DHT22;6681;53.254;10.398;2023-03-11T00:56:08;0.70;99.90
13231;DHT22;6681;53.254;10.398;2023-03-11T00:58:34;0.70;99.90
13231;DHT22;6681;53.254;10.398;2023-03-11T01:01:05;0.70;99.90
13231;DHT22;6681;53.254;10.398;2023-03-11T01:03:31;0.70;99.90
13231;DHT22;6681;53.254;10.398;2023-03-11T01:05:57;1.70;99.90
13231;DHT22;6681;53.254;10.398;2023-03-11T01:08:25;0.70;99.90
13231;DHT22;6681;53.254;10.398;2023-03-11T01:10:52;2.60;99.90
13231;DHT22;6681;53.254;10.398;2023-03-11T01:13:17;0.80;99.90
13231;DHT22;6681;53.254;10.398;2023-03-11T01:15:43;0.80;99.90
13231;DHT22;6681;53.254;10.398;2023-03-11T01:18:08;0.80;99.90
13231;DHT22;6681;53.254;10.398;2023-03-11T01:20:35;0.80;99.90
13231;DHT22;6681;53.254;10.398;2023-03-11T01:23:02;0.80;99.90
13231;DHT22;6681;53.254;10.398;2023-03-11T01:25:27;0.80;99.90
13231;DHT22;6681;53.254;10.398;2023-03-11T01:27:53;0.80;99.90
13231;DHT22;6681;53.254;10.398;2023-03-11T01:30:23;0.80;99.90
13231;DHT22;6681;53.254;10.398;2023-03-11T01:32:50;0.80;99.90
13231;DHT22;6681;53.254;10.398;2023-03-11T01:35:18;1.40;99.90
13231;DHT22;6681;53.254;10.398;2023-03-11T01:37:45;0.80;99.90
13231;DHT22;6681;53.254;10.398;2023-03-11T01:40:36;2.50;99.90
13231;DHT22;6681;53.254;10.398;2023-03-11T01:43:04;0.80;99.90
13231;DHT22;6681;53.254;10.398;2023-03-11T01:48:05;0.80;99.90
13231;DHT22;6681;53.254;10.398;2023-03-11T01:50:35;0.80;99.90
13231;DHT22;6681;53.254;10.398;2023-03-11T01:53:02;0.80;99.90
13231;DHT22;6681;53.254;10.398;2023-03-11T01:55:30;0.80;99.90
13231;DHT22;6681;53.254;10.398;2023-03-11T01:57:57;0.80;99.90
13231;DHT22;6681;53.254;10.398;2023-03-11T02:00:23;0.80;99.90
13231;DHT22;6681;53.254;10.398;2023-03-11T02:02:54;0.80;99.90
13231;DHT22;6681;53.254;10.398;2023-03-11T02:05:23;0.90;99.90
13231;DHT22;6681;53.254;10.398;2023-03-11T02:07:49;1.30;99.90
13231;DHT22;6681;53.254;10.398;2023-03-11T02:10:16;1.20;99.90
13231;DHT22;6681;53.254;10.398;2023-03-11T02:12:42;0.80;99.90
13231;DHT22;6681;53.254;10.398;2023-03-11T02:15:10;0.80;99.90
13231;DHT22;6681;53.254;10.398;2023-03-11T02:17:39;2.30;99.90
13231;DHT22;6681;53.254;10.398;2023-03-11T02:23:08;0.80;99.90
13231;DHT22;6681;53.254;10.398;2023-03-11T02:28:08;0.80;99.90
13231;DHT22;6681;53.254;10.398;2023-03-11T02:30:35;0.80;99.90
13231;DHT22;6681;53.254;10.398;2023-03-11T02:33:01;0.80;99.90
13231;DHT22;6681;53.254;10.398;2023-03-11T02:35:27;0.80;99.90
13231;DHT22;6681;53.254;10.398;2023-03-11T02:37:54;0.80;99.90
13231;DHT22;6681;53.254;10.398;2023-03-11T02:42:55;2.10;99.90
13231;DHT22;6681;53.254;10.398;2023-03-11T02:45:24;0.80;99.90
13231;DHT22;6681;53.254;10.398;2023-03-11T02:47:51;0.80;99.90
13231;DHT22;6681;53.254;10.398;2023-03-11T02:50:18;1.20;99.90
13231;DHT22;6681;53.254;10.398;2023-03-11T02:52:44;2.20;99.90
13231;DHT22;6681;53.254;10.398;2023-03-11T02:55:12;0.80;99.90
13231;DHT22;6681;53.254;10.398;2023-03-11T02:57:38;0.80;99.90
13231;DHT22;6681;53.254;10.398;2023-03-11T03:00:05;0.90;99.90
13231;DHT22;6681;53.254;10.398;2023-03-11T03:02:37;0.80;99.90
13231;DHT22;6681;53.254;10.398;2023-03-11T03:05:03;0.90;99.90
13231;DHT22;6681;53.254;10.398;2023-03-11T03:07:30;0.90;99.90
13231;DHT22;6681;53.254;10.398;2023-03-11T03:09:56;0.80;99.90
13231;DHT22;6681;53.254;10.398;2023-03-11T03:12:21;1.60;99.90
13231;DHT22;6681;53.254;10.398;2023-03-11T03:14:47;3.00;99.90
13231;DHT22;6681;53.254;10.398;2023-03-11T03:17:13;2.80;99.90
13231;DHT22;6681;53.254;10.398;2023-03-11T03:19:38;0.70;99.90
13231;DHT22;6681;53.254;10.398;2023-03-11T03:22:04;2.30;99.90
13231;DHT22;6681;53.254;10.398;2023-03-11T03:24:29;0.70;99.90
13231;DHT22;6681;53.254;10.398;2023-03-11T03:26:55;0.80;99.90
13231;DHT22;6681;53.254;10.398;2023-03-11T03:29:21;1.80;99.90
13231;DHT22;6681;53.254;10.398;2023-03-11T03:31:46;2.40;99.90
13231;DHT22;6681;53.254;10.398;2023-03-11T03:34:12;1.40;99.90
13231;DHT22;6681;53.254;10.398;2023-03-11T03:36:37;0.70;99.90
13231;DHT22;6681;53.254;10.398;2023-03-11T03:39:04;0.70;99.90
13231;DHT22;6681;53.254;10.398;2023-03-11T03:41:29;2.50;99.90
13231;DHT22;6681;53.254;10.398;2023-03-11T03:43:55;0.70;99.90
13231;DHT22;6681;53.254;10.398;2023-03-11T03:46:21;0.70;99.90
13231;DHT22;6681;53.254;10.398;2023-03-11T03:48:53;0.80;99.90
13231;DHT22;6681;53.254;10.398;2023-03-11T03:51:18;0.70;99.90
13231;DHT22;6681;53.254;10.398;2023-03-11T03:53:44;0.70;99.90
13231;DHT22;6681;53.254;10.398;2023-03-11T03:56:15;0.70;99.90
13231;DHT22;6681;53.254;10.398;2023-03-11T03:58:41;1.80;99.90
13231;DHT22;6681;53.254;10.398;2023-03-11T04:01:08;1.30;99.90
13231;DHT22;6681;53.254;10.398;2023-03-11T04:03:35;0.60;99.90
13231;DHT22;6681;53.254;10.398;2023-03-11T04:08:35;0.60;99.90
13231;DHT22;6681;53.254;10.398;2023-03-11T04:11:01;0.70;99.90
13231;DHT22;6681;53.254;10.398;2023-03-11T04:13:27;0.60;99.90
13231;DHT22;6681;53.254;10.398;2023-03-11T04:15:53;1.50;99.90
13231;DHT22;6681;53.254;10.398;2023-03-11T04:18:18;0.60;99.90
13231;DHT22;6681;53.254;10.398;2023-03-11T04:20:44;0.60;99.90
13231;DHT22;6681;53.254;10.398;2023-03-11T04:23:10;2.50;99.90
13231;DHT22;6681;53.254;10.398;2023-03-11T04:25:37;0.60;99.90
13231;DHT22;6681;53.254;10.398;2023-03-11T04:28:03;0.90;99.90
13231;DHT22;6681;53.254;10.398;2023-03-11T04:30:28;0.60;99.90
13231;DHT22;6681;53.254;10.398;2023-03-11T04:32:54;0.60;99.90
13231;DHT22;6681;53.254;10.398;2023-03-11T04:35:19;0.70;99.90
13231;DHT22;6681;53.254;10.398;2023-03-11T04:37:45;0.70;99.90
13231;DHT22;6681;53.254;10.398;2023-03-11T04:40:11;0.60;99.90
13231;DHT22;6681;53.254;10.398;2023-03-11T04:42:37;0.60;99.90
13231;DHT22;6681;53.254;10.398;2023-03-11T04:45:04;0.60;99.90
13231;DHT22;6681;53.254;10.398;2023-03-11T04:47:30;0.60;99.90
13231;DHT22;6681;53.254;10.398;2023-03-11T04:49:56;0.60;99.90
13231;DHT22;6681;53.254;10.398;2023-03-11T04:52:22;0.60;99.90
13231;DHT22;6681;53.254;10.398;2023-03-11T04:54:47;0.60;99.90
13231;DHT22;6681;53.254;10.398;2023-03-11T04:57:13;0.50;99.90
13231;DHT22;6681;53.254;10.398;2023-03-11T04:59:39;0.50;99.90
13231;DHT22;6681;53.254;10.398;2023-03-11T05:02:05;1.40;99.90
13231;DHT22;6681;53.254;10.398;2023-03-11T05:04:30;0.60;99.90
13231;DHT22;6681;53.254;10.398;2023-03-11T05:06:56;0.60;99.90
13231;DHT22;6681;53.254;10.398;2023-03-11T05:09:22;0.60;99.90
13231;DHT22;6681;53.254;10.398;2023-03-11T05:11:47;0.60;99.90
13231;DHT22;6681;53.254;10.398;2023-03-11T05:14:13;2.50;99.90
13231;DHT22;6681;53.254;10.398;2023-03-11T05:16:39;0.60;99.90
13231;DHT22;6681;53.254;10.398;2023-03-11T05:19:04;0.60;99.90
13231;DHT22;6681;53.254;10.398;2023-03-11T05:21:50;0.60;99.90
13231;DHT22;6681;53.254;10.398;2023-03-11T05:24:15;2.50;99.90
13231;DHT22;6681;53.254;10.398;2023-03-11T05:26:41;0.60;99.90
13231;DHT22;6681;53.254;10.398;2023-03-11T05:29:06;0.50;99.90
13231;DHT22;6681;53.254;10.398;2023-03-11T05:31:32;1.40;99.90
13231;DHT22;6681;53.254;10.398;2023-03-11T05:33:58;0.60;99.90
13231;DHT22;6681;53.254;10.398;2023-03-11T05:36:23;0.80;99.90
13231;DHT22;6681;53.254;10.398;2023-03-11T05:38:49;0.60;99.90
13231;DHT22;6681;53.254;10.398;2023-03-11T05:41:14;1.40;99.90
13231;DHT22;6681;53.254;10.398;2023-03-11T05:43:40;0.60;99.90
13231;DHT22;6681;53.254;10.398;2023-03-11T05:46:06;0.60;99.90
13231;DHT22;6681;53.254;10.398;2023-03-11T05:48:31;0.60;99.90
13231;DHT22;6681;53.254;10.398;2023-03-11T05:50:57;0.60;99.90
13231;DHT22;6681;53.254;10.398;2023-03-11T05:53:23;1.50;99.90
13231;DHT22;6681;53.254;10.398;2023-03-11T05:55:56;0.60;99.90
13231;DHT22;6681;53.254;10.398;2023-03-11T05:58:22;0.60;99.90
13231;DHT22;6681;53.254;10.398;2023-03-11T06:00:48;1.60;99.90
13231;DHT22;6681;53.254;10.398;2023-03-11T06:03:13;0.50;99.90
13231;DHT22;6681;53.254;10.398;2023-03-11T06:05:46;0.60;99.90
13231;DHT22;6681;53.254;10.398;2023-03-11T06:08:12;0.40;99.90
13231;DHT22;6681;53.254;10.398;2023-03-11T06:10:38;0.40;99.90
13231;DHT22;6681;53.254;10.398;2023-03-11T06:13:04;0.40;99.90
13231;DHT22;6681;53.254;10.398;2023-03-11T06:15:31;2.10;99.90
13231;DHT22;6681;53.254;10.398;2023-03-11T06:17:57;0.70;99.90
13231;DHT22;6681;53.254;10.398;2023-03-11T06:20:23;0.30;99.90
13231;DHT22;6681;53.254;10.398;2023-03-11T06:22:49;1.10;99.90
13231;DHT22;6681;53.254;10.398;2023-03-11T06:25:15;0.30;99.90
13231;DHT22;6681;53.254;10.398;2023-03-11T06:27:40;0.40;99.90
13231;DHT22;6681;53.254;10.398;2023-03-11T06:30:07;0.40;99.90
13231;DHT22;6681;53.254;10.398;2023-03-11T06:32:33;0.40;99.90
13231;DHT22;6681;53.254;10.398;2023-03-11T06:34:59;0.40;99.90
13231;DHT22;6681;53.254;10.398;2023-03-11T06:37:25;0.40;99.90
13231;DHT22;6681;53.254;10.398;2023-03-11T06:39:51;0.90;99.90
13231;DHT22;6681;53.254;10.398;2023-03-11T06:42:17;0.40;99.90
13231;DHT22;6681;53.254;10.398;2023-03-11T06:44:43;0.40;99.90
13231;DHT22;6681;53.254;10.398;2023-03-11T06:47:11;0.40;99.90
13231;DHT22;6681;53.254;10.398;2023-03-11T06:49:37;0.50;99.90
13231;DHT22;6681;53.254;10.398;2023-03-11T06:52:05;0.60;99.90
13231;DHT22;6681;53.254;10.398;2023-03-11T06:54:31;0.50;99.90
13231;DHT22;6681;53.254;10.398;2023-03-11T06:56:57;0.60;99.90
13231;DHT22;6681;53.254;10.398;2023-03-11T06:59:22;0.60;99.90
13231;DHT22;6681;53.254;10.398;2023-03-11T07:01:48;0.70;99.90
13231;DHT22;6681;53.254;10.398;2023-03-11T07:04:13;0.60;99.90
13231;DHT22;6681;53.254;10.398;2023-03-11T07:06:40;1.70;99.90
13231;DHT22;6681;53.254;10.398;2023-03-11T07:09:06;2.80;99.90
13231;DHT22;6681;53.254;10.398;2023-03-11T07:11:32;0.60;99.90
13231;DHT22;6681;53.254;10.398;2023-03-11T07:13:57;0.60;99.90
13231;DHT22;6681;53.254;10.398;2023-03-11T07:16:26;0.60;99.90
13231;DHT22;6681;53.254;10.398;2023-03-11T07:18:54;0.60;99.90
13231;DHT22;6681;53.254;10.398;2023-03-11T07:21:21;0.60;99.90
13231;DHT22;6681;53.254;10.398;2023-03-11T07:23:51;0.60;99.90
13231;DHT22;6681;53.254;10.398;2023-03-11T07:26:17;1.10;99.90
13231;DHT22;6681;53.254;10.398;2023-03-11T07:28:43;1.00;99.90
13231;DHT22;6681;53.254;10.398;2023-03-11T07:31:11;0.60;99.90
13231;DHT22;6681;53.254;10.398;2023-03-11T07:33:37;0.60;99.90
13231;DHT22;6681;53.254;10.398;2023-03-11T07:36:22;1.00;99.90
13231;DHT22;6681;53.254;10.398;2023-03-11T07:38:53;0.60;99.90
13231;DHT22;6681;53.254;10.398;2023-03-11T07:41:19;0.90;99.90
13231;DHT22;6681;53.254;10.398;2023-03-11T07:43:45;1.20;99.90
13231;DHT22;6681;53.254;10.398;2023-03-11T07:46:13;2.20;99.90
13231;DHT22;6681;53.254;10.398;2023-03-11T07:48:41;0.70;99.90
13231;DHT22;6681;53.254;10.398;2023-03-11T07:51:13;0.70;99.90
13231;DHT22;6681;53.254;10.398;2023-03-11T07:53:39;0.70;99.90
13231;DHT22;6681;53.254;10.398;2023-03-11T07:56:09;0.80;99.90
13231;DHT22;6681;53.254;10.398;2023-03-11T07:58:35;0.80;99.90
13231;DHT22;6681;53.254;10.398;2023-03-11T08:01:18;0.90;99.90
13231;DHT22;6681;53.254;10.398;2023-03-11T08:03:46;2.30;99.90
13231;DHT22;6681;53.254;10.398;2023-03-11T08:06:17;1.50;99.90
13231;DHT22;6681;53.254;10.398;2023-03-11T08:08:43;1.00;99.90
13231;DHT22;6681;53.254;10.398;2023-03-11T08:11:10;1.40;99.90
13231;DHT22;6681;53.254;10.398;2023-03-11T08:13:38;1.00;99.90
13231;DHT22;6681;53.254;10.398;2023-03-11T08:16:05;1.40;99.90
13231;DHT22;6681;53.254;10.398;2023-03-11T08:18:31;1.10;99.90
13231;DHT22;6681;53.254;10.398;2023-03-11T08:20:57;1.40;99.90
13231;DHT22;6681;53.254;10.398;2023-03-11T08:23:23;1.20;99.90
13231;DHT22;6681;53.254;10.398;2023-03-11T08:25:49;1.20;99.90
13231;DHT22;6681;53.254;10.398;2023-03-11T08:28:14;1.30;99.90
13231;DHT22;6681;53.254;10.398;2023-03-11T08:30:40;1.30;99.90
13231;DHT22;6681;53.254;10.398;2023-03-11T08:33:06;3.00;99.90
13231;DHT22;6681;53.254;10.398;2023-03-11T08:35:32;1.70;99.90
13231;DHT22;6681;53.254;10.398;2023-03-11T08:37:57;2.10;99.90
13231;DHT22;6681;53.254;10.398;2023-03-11T08:40:23;1.30;99.90
13231;DHT22;6681;53.254;10.398;2023-03-11T08:42:48;1.40;99.90
13231;DHT22;6681;53.254;10.398;2023-03-11T08:45:14;1.40;99.90
13231;DHT22;6681;53.254;10.398;2023-03-11T08:47:40;1.40;99.90
13231;DHT22;6681;53.254;10.398;2023-03-11T08:50:12;3.70;99.90
13231;DHT22;6681;53.254;10.398;2023-03-11T08:52:38;1.50;99.90
13231;DHT22;6681;53.254;10.398;2023-03-11T08:55:04;1.60;99.90
13231;DHT22;6681;53.254;10.398;2023-03-11T08:57:34;1.60;99.90
13231;DHT22;6681;53.254;10.398;2023-03-11T08:59:59;1.70;99.90
13231;DHT22;6681;53.254;10.398;2023-03-11T09:02:25;1.70;99.90
13231;DHT22;6681;53.254;10.398;2023-03-11T09:04:51;1.80;99.90
13231;DHT22;6681;53.254;10.398;2023-03-11T09:07:17;1.80;99.90
13231;DHT22;6681;53.254;10.398;2023-03-11T09:09:42;2.80;99.90
13231;DHT22;6681;53.254;10.398;2023-03-11T09:12:08;1.90;99.90
13231;DHT22;6681;53.254;10.398;2023-03-11T09:14:41;1.90;99.90
13231;DHT22;6681;53.254;10.398;2023-03-11T09:17:07;1.90;99.90
13231;DHT22;6681;53.254;10.398;2023-03-11T09:19:33;2.00;99.90
13231;DHT22;6681;53.254;10.398;2023-03-11T09:22:00;2.30;99.90
13231;DHT22;6681;53.254;10.398;2023-03-11T09:24:26;2.10;99.90
13231;DHT22;6681;53.254;10.398;2023-03-11T09:26:52;2.10;99.90
13231;DHT22;6681;53.254;10.398;2023-03-11T09:29:17;2.40;99.90
13231;DHT22;6681;53.254;10.398;2023-03-11T09:31:43;2.20;99.90
13231;DHT22;6681;53.254;10.398;2023-03-11T09:34:11;2.20;99.90
13231;DHT22;6681;53.254;10.398;2023-03-11T09:36:40;2.30;99.90
13231;DHT22;6681;53.254;10.398;2023-03-11T09:39:06;2.40;99.90
13231;DHT22;6681;53.254;10.398;2023-03-11T09:41:55;2.40;99.90
13231;DHT22;6681;53.254;10.398;2023-03-11T09:44:37;2.40;99.90
13231;DHT22;6681;53.254;10.398;2023-03-11T09:55:11;2.70;99.90
13231;DHT22;6681;53.254;10.398;2023-03-11T09:57:44;2.70;99.90
13231;DHT22;6681;53.254;10.398;2023-03-11T10:00:10;2.70;99.90
13231;DHT22;6681;53.254;10.398;2023-03-11T10:02:37;2.80;99.90
13231;DHT22;6681;53.254;10.398;2023-03-11T10:05:14;2.80;99.90
13231;DHT22;6681;53.254;10.398;2023-03-11T10:07:44;2.80;99.90
13231;DHT22;6681;53.254;10.398;2023-03-11T10:10:13;2.80;99.90
13231;DHT22;6681;53.254;10.398;2023-03-11T10:21:05;3.10;99.90
13231;DHT22;6681;53.254;10.398;2023-03-11T10:23:54;3.30;99.90
13231;DHT22;6681;53.254;10.398;2023-03-11T10:26:36;3.30;99.90
13231;DHT22;6681;53.254;10.398;2023-03-11T10:29:26;3.30;99.90
13231;DHT22;6681;53.254;10.398;2023-03-11T10:32:21;3.30;99.90
13231;DHT22;6681;53.254;10.398;2023-03-11T10:35:18;3.50;99.90
13231;DHT22;6681;53.254;10.398;2023-03-11T10:37:57;3.60;99.90
13231;DHT22;6681;53.254;10.398;2023-03-11T10:40:30;3.60;99.90
13231;DHT22;6681;53.254;10.398;2023-03-11T10:42:59;3.60;99.90
13231;DHT22;6681;53.254;10.398;2023-03-11T10:45:37;3.70;99.90
13231;DHT22;6681;53.254;10.398;2023-03-11T10:48:24;3.70;99.90
13231;DHT22;6681;53.254;10.398;2023-03-11T10:51:00;3.70;99.90
13231;DHT22;6681;53.254;10.398;2023-03-11T10:53:27;3.80;99.90
13231;DHT22;6681;53.254;10.398;2023-03-11T10:55:55;3.90;99.90
13231;DHT22;6681;53.254;10.398;2023-03-11T10:58:24;4.00;99.90
13231;DHT22;6681;53.254;10.398;2023-03-11T11:01:14;4.10;99.90
13231;DHT22;6681;53.254;10.398;2023-03-11T11:03:44;4.10;99.90
13231;DHT22;6681;53.254;10.398;2023-03-11T11:06:19;4.20;99.90
13231;DHT22;6681;53.254;10.398;2023-03-11T11:08:45;4.30;99.90
13231;DHT22;6681;53.254;10.398;2023-03-11T11:11:22;4.30;99.90
13231;DHT22;6681;53.254;10.398;2023-03-11T11:13:56;4.40;99.90
13231;DHT22;6681;53.254;10.398;2023-03-11T11:16:22;4.50;99.90
13231;DHT22;6681;53.254;10.398;2023-03-11T11:19:09;4.70;99.90
13231;DHT22;6681;53.254;10.398;2023-03-11T11:21:41;5.80;99.90
13231;DHT22;6681;53.254;10.398;2023-03-11T11:24:26;4.70;99.90
13231;DHT22;6681;53.254;10.398;2023-03-11T11:27:23;4.60;99.90
13231;DHT22;6681;53.254;10.398;2023-03-11T11:30:13;4.60;99.90
13231;DHT22;6681;53.254;10.398;2023-03-11T11:32:40;4.60;99.90
13231;DHT22;6681;53.254;10.398;2023-03-11T11:35:10;4.70;99.90
13231;DHT22;6681;53.254;10.398;2023-03-11T11:37:38;4.90;99.90
13231;DHT22;6681;53.254;10.398;2023-03-11T11:45:40;5.00;99.90
13231;DHT22;6681;53.254;10.398;2023-03-11T11:50:44;5.20;99.90
13231;DHT22;6681;53.254;10.398;2023-03-11T11:56:03;5.50;99.90
13231;DHT22;6681;53.254;10.398;2023-03-11T11:58:29;5.50;99.90
13231;DHT22;6681;53.254;10.398;2023-03-11T12:14:18;5.60;99.90
13231;DHT22;6681;53.254;10.398;2023-03-11T12:17:00;5.60;99.90
13231;DHT22;6681;53.254;10.398;2023-03-11T12:25:44;5.80;99.90
13231;DHT22;6681;53.254;10.398;2023-03-11T12:30:53;5.80;99.90
13231;DHT22;6681;53.254;10.398;2023-03-11T12:33:45;5.80;99.90
13231;DHT22;6681;53.254;10.398;2023-03-11T12:36:32;6.00;99.90
13231;DHT22;6681;53.254;10.398;2023-03-11T12:39:00;6.30;99.90
13231;DHT22;6681;53.254;10.398;2023-03-11T12:41:31;6.50;99.90
13231;DHT22;6681;53.254;10.398;2023-03-11T12:44:03;6.50;99.90
13231;DHT22;6681;53.254;10.398;2023-03-11T13:06:02;7.20;99.90
13231;DHT22;6681;53.254;10.398;2023-03-11T13:08:44;7.30;99.90
13231;DHT22;6681;53.254;10.398;2023-03-11T13:16:41;7.10;99.90
13231;DHT22;6681;53.254;10.398;2023-03-11T13:19:36;6.90;99.90
13231;DHT22;6681;53.254;10.398;2023-03-11T13:22:38;6.70;99.90
13231;DHT22;6681;53.254;10.398;2023-03-11T13:25:28;6.60;99.90
13231;DHT22;6681;53.254;10.398;2023-03-11T13:28:18;7.00;99.90
13231;DHT22;6681;53.254;10.398;2023-03-11T13:30:51;6.80;99.90
13231;DHT22;6681;53.254;10.398;2023-03-11T13:33:35;6.70;99.90
13231;DHT22;6681;53.254;10.398;2023-03-11T13:36:33;6.40;99.90
13231;DHT22;6681;53.254;10.398;2023-03-11T13:41:58;7.00;99.90
13231;DHT22;6681;53.254;10.398;2023-03-11T13:44:30;7.40;99.90
13231;DHT22;6681;53.254;10.398;2023-03-11T13:47:06;7.50;99.90
13231;DHT22;6681;53.254;10.398;2023-03-11T13:49:59;7.60;99.90
13231;DHT22;6681;53.254;10.398;2023-03-11T13:52:30;7.60;99.90
13231;DHT22;6681;53.254;10.398;2023-03-11T13:55:18;7.20;99.90
13231;DHT22;6681;53.254;10.398;2023-03-11T13:57:52;6.90;99.90
13231;DHT22;6681;53.254;10.398;2023-03-11T14:00:21;6.80;99.90
13231;DHT22;6681;53.254;10.398;2023-03-11T14:02:53;7.00;99.90
13231;DHT22;6681;53.254;10.398;2023-03-11T14:05:32;7.50;99.90
13231;DHT22;6681;53.254;10.398;2023-03-11T14:08:12;7.20;99.90
13231;DHT22;6681;53.254;10.398;2023-03-11T14:10:55;7.20;99.90
13231;DHT22;6681;53.254;10.398;2023-03-11T14:13:22;7.60;99.90
13231;DHT22;6681;53.254;10.398;2023-03-11T14:19:12;8.00;99.90
13231;DHT22;6681;53.254;10.398;2023-03-11T14:21:20;8.20;99.90
13231;DHT22;6681;53.254;10.398;2023-03-11T14:23:52;8.10;99.90
13231;DHT22;6681;53.254;10.398;2023-03-11T14:26:25;8.30;99.90
13231;DHT22;6681;53.254;10.398;2023-03-11T14:28:55;8.80;99.90
13231;DHT22;6681;53.254;10.398;2023-03-11T14:31:30;8.50;99.90
13231;DHT22;6681;53.254;10.398;2023-03-11T14:34:21;8.30;99.90
13231;DHT22;6681;53.254;10.398;2023-03-11T14:36:49;8.00;99.90
13231;DHT22;6681;53.254;10.398;2023-03-11T14:39:27;7.80;99.90
13231;DHT22;6681;53.254;10.398;2023-03-11T14:44:51;7.60;99.90
13231;DHT22;6681;53.254;10.398;2023-03-11T14:48:09;7.40;99.90
13231;DHT22;6681;53.254;10.398;2023-03-11T14:50:32;10.00;99.90
13231;DHT22;6681;53.254;10.398;2023-03-11T14:53:13;7.20;99.90
13231;DHT22;6681;53.254;10.398;2023-03-11T14:55:41;7.20;99.90
13231;DHT22;6681;53.254;10.398;2023-03-11T15:01:29;7.10;99.90
13231;DHT22;6681;53.254;10.398;2023-03-11T15:03:42;6.80;99.90
13231;DHT22;6681;53.254;10.398;2023-03-11T15:06:13;6.70;99.90
13231;DHT22;6681;53.254;10.398;2023-03-11T15:08:45;6.70;99.90
13231;DHT22;6681;53.254;10.398;2023-03-11T15:13:39;6.80;99.90
13231;DHT22;6681;53.254;10.398;2023-03-11T15:18:47;6.90;99.90
13231;DHT22;6681;53.254;10.398;2023-03-11T15:21:16;6.90;99.90
13231;DHT22;6681;53.254;10.398;2023-03-11T15:23:51;6.90;99.90
13231;DHT22;6681;53.254;10.398;2023-03-11T15:26:23;7.10;99.90
13231;DHT22;6681;53.254;10.398;2023-03-11T15:29:02;6.80;99.90
13231;DHT22;6681;53.254;10.398;2023-03-11T15:31:31;7.00;99.90
13231;DHT22;6681;53.254;10.398;2023-03-11T15:42:20;6.80;99.90
13231;DHT22;6681;53.254;10.398;2023-03-11T15:47:22;5.80;99.90
13231;DHT22;6681;53.254;10.398;2023-03-11T15:49:48;5.70;99.90
13231;DHT22;6681;53.254;10.398;2023-03-11T15:52:15;5.70;99.90
13231;DHT22;6681;53.254;10.398;2023-03-11T15:54:41;5.70;99.90
13231;DHT22;6681;53.254;10.398;2023-03-11T15:57:08;5.30;99.90
13231;DHT22;6681;53.254;10.398;2023-03-11T15:59:36;5.10;99.90
13231;DHT22;6681;53.254;10.398;2023-03-11T16:02:03;5.10;99.90
13231;DHT22;6681;53.254;10.398;2023-03-11T16:04:28;5.00;99.90
13231;DHT22;6681;53.254;10.398;2023-03-11T16:06:54;4.90;99.90
13231;DHT22;6681;53.254;10.398;2023-03-11T16:09:20;4.90;99.90
13231;DHT22;6681;53.254;10.398;2023-03-11T16:11:46;4.70;99.90
13231;DHT22;6681;53.254;10.398;2023-03-11T16:14:17;4.60;99.90
13231;DHT22;6681;53.254;10.398;2023-03-11T16:16:43;4.60;99.90
13231;DHT22;6681;53.254;10.398;2023-03-11T16:19:10;4.90;99.90
13231;DHT22;6681;53.254;10.398;2023-03-11T16:21:45;4.50;99.90
13231;DHT22;6681;53.254;10.398;2023-03-11T16:24:21;4.50;99.90
13231;DHT22;6681;53.254;10.398;2023-03-11T16:26:48;4.80;99.90
13231;DHT22;6681;53.254;10.398;2023-03-11T16:29:16;4.50;99.90
13231;DHT22;6681;53.254;10.398;2023-03-11T16:31:42;4.30;99.90
13231;DHT22;6681;53.254;10.398;2023-03-11T16:34:08;5.80;99.90
13231;DHT22;6681;53.254;10.398;2023-03-11T16:36:33;4.20;99.90
13231;DHT22;6681;53.254;10.398;2023-03-11T16:38:59;4.10;99.90
13231;DHT22;6681;53.254;10.398;2023-03-11T16:41:25;4.10;99.90
13231;DHT22;6681;53.254;10.398;2023-03-11T16:43:51;4.00;99.90
13231;DHT22;6681;53.254;10.398;2023-03-11T16:46:17;4.80;99.90
13231;DHT22;6681;53.254;10.398;2023-03-11T16:48:48;4.30;99.90
13231;DHT22;6681;53.254;10.398;2023-03-11T16:51:14;4.00;99.90
13231;DHT22;6681;53.254;10.398;2023-03-11T16:53:39;3.90;99.90
13231;DHT22;6681;53.254;10.398;2023-03-11T16:56:05;5.30;99.90
13231;DHT22;6681;53.254;10.398;2023-03-11T16:58:31;3.90;99.90
13231;DHT22;6681;53.254;10.398;2023-03-11T17:00:56;3.80;99.90
13231;DHT22;6681;53.254;10.398;2023-03-11T17:03:22;5.60;99.90
13231;DHT22;6681;53.254;10.398;2023-03-11T17:05:48;4.90;99.90
13231;DHT22;6681;53.254;10.398;2023-03-11T17:08:13;3.70;99.90
13231;DHT22;6681;53.254;10.398;2023-03-11T17:10:43;3.70;99.90
13231;DHT22;6681;53.254;10.398;2023-03-11T17:13:11;3.70;99.90
13231;DHT22;6681;53.254;10.398;2023-03-11T17:15:37;3.70;99.90
13231;DHT22;6681;53.254;10.398;2023-03-11T17:18:06;3.60;99.90
13231;DHT22;6681;53.254;10.398;2023-03-11T17:20:32;4.20;99.90
13231;DHT22;6681;53.254;10.398;2023-03-11T17:22:59;3.50;99.90
13231;DHT22;6681;53.254;10.398;2023-03-11T17:25:25;3.50;99.90
13231;DHT22;6681;53.254;10.398;2023-03-11T17:27:50;3.50;99.90
13231;DHT22;6681;53.254;10.398;2023-03-11T17:30:16;3.50;99.90
13231;DHT22;6681;53.254;10.398;2023-03-11T17:32:42;3.50;99.90
13231;DHT22;6681;53.254;10.398;2023-03-11T17:35:08;3.40;99.90
13231;DHT22;6681;53.254;10.398;2023-03-11T17:37:33;3.40;99.90
13231;DHT22;6681;53.254;10.398;2023-03-11T17:39:59;3.70;99.90
13231;DHT22;6681;53.254;10.398;2023-03-11T17:42:25;3.90;99.90
13231;DHT22;6681;53.254;10.398;2023-03-11T17:44:54;4.10;99.90
13231;DHT22;6681;53.254;10.398;2023-03-11T17:47:20;3.40;99.90
13231;DHT22;6681;53.254;10.398;2023-03-11T17:49:50;3.40;99.90
13231;DHT22;6681;53.254;10.398;2023-03-11T17:52:16;5.20;99.90
13231;DHT22;6681;53.254;10.398;2023-03-11T17:54:42;3.30;99.90